createdAt,value
2018-07-13T00:00:35.484Z,17.363281
2018-07-13T00:01:35.586Z,17.34314
2018-07-13T00:02:35.659Z,17.333069
2018-07-13T00:03:35.752Z,17.312927
2018-07-13T00:04:35.856Z,17.272644
2018-07-13T00:05:35.928Z,17.272644
2018-07-13T00:06:36.010Z,17.272644
2018-07-13T00:07:36.090Z,17.232361
2018-07-13T00:08:36.178Z,17.22229
2018-07-13T00:09:36.272Z,17.192078
2018-07-13T00:10:36.378Z,17.161865
2018-07-13T00:11:36.444Z,17.151794
2018-07-13T00:12:36.532Z,17.111511
2018-07-13T00:13:36.610Z,17.09137
2018-07-13T00:14:36.697Z,17.09137
2018-07-13T00:15:36.788Z,17.061157
2018-07-13T00:16:36.894Z,17.081299
2018-07-13T00:17:36.968Z,17.051086
2018-07-13T00:18:37.052Z,17.041016
2018-07-13T00:19:37.140Z,16.990662
2018-07-13T00:20:37.239Z,16.990662
2018-07-13T00:21:37.343Z,16.990662
2018-07-13T00:22:37.421Z,16.940308
2018-07-13T00:23:37.505Z,16.940308
2018-07-13T00:24:37.599Z,16.930237
2018-07-13T00:25:37.703Z,16.889954
2018-07-13T00:26:37.795Z,16.900024
2018-07-13T00:27:37.902Z,16.889954
2018-07-13T00:28:37.977Z,16.859741
2018-07-13T00:29:38.065Z,16.8396
2018-07-13T00:30:38.193Z,16.829529
2018-07-13T00:31:38.280Z,16.809387
2018-07-13T00:32:38.402Z,16.789246
2018-07-13T00:33:38.514Z,16.779175
2018-07-13T00:34:38.615Z,16.759033
2018-07-13T00:35:38.708Z,16.748962
2018-07-13T00:36:38.825Z,16.738892
2018-07-13T00:37:38.918Z,16.708679
2018-07-13T00:38:39.043Z,16.71875
2018-07-13T00:39:39.160Z,16.688538
2018-07-13T00:40:39.254Z,16.658325
2018-07-13T00:41:39.364Z,16.648254
2018-07-13T00:42:39.484Z,16.648254
2018-07-13T00:43:39.561Z,16.648254
2018-07-13T00:44:39.648Z,16.607971
2018-07-13T00:45:39.776Z,16.5979
2018-07-13T00:46:39.853Z,16.5979
2018-07-13T00:47:39.957Z,16.577759
2018-07-13T00:48:40.064Z,16.567688
2018-07-13T00:49:40.145Z,16.557617
2018-07-13T00:50:40.271Z,16.537476
2018-07-13T00:51:40.348Z,16.527405
2018-07-13T00:52:40.445Z,16.507263
2018-07-13T00:53:40.545Z,16.527405
2018-07-13T00:54:40.641Z,16.507263
2018-07-13T00:55:40.759Z,16.487122
2018-07-13T00:56:40.860Z,16.46698
2018-07-13T00:57:40.961Z,16.456909
2018-07-13T00:58:41.061Z,16.456909
2018-07-13T00:59:41.154Z,16.426697
2018-07-13T01:00:41.264Z,16.426697
2018-07-13T01:01:41.402Z,16.406555
2018-07-13T01:02:41.490Z,16.406555
2018-07-13T01:03:41.610Z,16.376343
2018-07-13T01:04:41.708Z,16.376343
2018-07-13T01:05:41.804Z,16.386414
2018-07-13T01:06:41.934Z,16.356201
2018-07-13T01:07:42.083Z,16.356201
2018-07-13T01:08:42.156Z,16.325989
2018-07-13T01:09:42.263Z,16.325989
2018-07-13T01:10:42.354Z,16.315918
2018-07-13T01:11:42.484Z,16.285706
2018-07-13T01:12:42.581Z,16.285706
2018-07-13T01:13:42.987Z,16.255493
2018-07-13T01:14:42.821Z,16.275635
2018-07-13T01:15:42.920Z,16.235352
2018-07-13T01:16:43.035Z,16.195068
2018-07-13T01:17:43.123Z,16.225281
2018-07-13T01:18:43.272Z,16.174927
2018-07-13T01:19:43.384Z,16.174927
2018-07-13T01:20:43.471Z,16.174927
2018-07-13T01:21:43.582Z,16.164856
2018-07-13T01:22:43.676Z,16.154785
2018-07-13T01:23:43.781Z,16.134644
2018-07-13T01:24:43.909Z,16.154785
2018-07-13T01:25:44.052Z,16.124573
2018-07-13T01:26:44.133Z,16.124573
2018-07-13T01:27:44.232Z,16.08429
2018-07-13T01:28:44.339Z,16.054077
2018-07-13T01:29:44.451Z,16.054077
2018-07-13T01:30:44.569Z,16.044006
2018-07-13T01:31:44.669Z,16.044006
2018-07-13T01:32:44.804Z,16.054077
2018-07-13T01:33:44.921Z,16.044006
2018-07-13T01:34:45.021Z,16.013794
2018-07-13T01:35:45.133Z,16.013794
2018-07-13T01:36:45.266Z,16.003723
2018-07-13T01:37:45.395Z,15.973511
2018-07-13T01:38:45.507Z,15.973511
2018-07-13T01:39:45.567Z,15.973511
2018-07-13T01:40:45.696Z,15.953369
2018-07-13T01:41:45.803Z,15.943298
2018-07-13T01:42:45.941Z,15.913086
2018-07-13T01:43:46.035Z,15.913086
2018-07-13T01:44:46.168Z,15.882874
2018-07-13T01:45:46.274Z,15.862732
2018-07-13T01:46:46.397Z,15.862732
2018-07-13T01:47:46.506Z,15.84259
2018-07-13T01:48:46.612Z,15.862732
2018-07-13T01:49:46.704Z,15.84259
2018-07-13T01:50:46.845Z,15.822449
2018-07-13T01:51:46.952Z,15.802307
2018-07-13T01:52:47.059Z,15.792236
2018-07-13T01:53:47.180Z,15.772095
2018-07-13T01:54:47.261Z,15.772095
2018-07-13T01:55:47.371Z,15.762024
2018-07-13T01:56:47.475Z,15.762024
2018-07-13T01:57:47.595Z,15.762024
2018-07-13T01:58:47.715Z,15.751953
2018-07-13T01:59:47.852Z,15.751953
2018-07-13T02:00:47.940Z,15.701599
2018-07-13T02:01:48.076Z,15.721741
2018-07-13T02:02:48.161Z,15.681458
2018-07-13T02:03:48.283Z,15.701599
2018-07-13T02:04:48.393Z,15.681458
2018-07-13T02:05:48.505Z,15.701599
2018-07-13T02:06:48.611Z,15.641174
2018-07-13T02:07:48.720Z,15.651245
2018-07-13T02:08:48.829Z,15.651245
2018-07-13T02:09:48.938Z,15.621033
2018-07-13T02:10:49.056Z,15.610962
2018-07-13T02:11:49.172Z,15.610962
2018-07-13T02:12:49.285Z,15.59082
2018-07-13T02:13:49.388Z,15.58075
2018-07-13T02:14:49.496Z,15.570679
2018-07-13T02:15:49.598Z,15.550537
2018-07-13T02:16:49.725Z,15.550537
2018-07-13T02:17:49.913Z,15.540466
2018-07-13T02:18:49.947Z,15.510254
2018-07-13T02:19:50.078Z,15.510254
2018-07-13T02:20:50.189Z,15.510254
2018-07-13T02:21:50.302Z,15.469971
2018-07-13T02:22:50.414Z,15.439758
2018-07-13T02:23:50.540Z,15.439758
2018-07-13T02:24:50.678Z,15.429688
2018-07-13T02:25:50.800Z,15.429688
2018-07-13T02:26:50.920Z,15.389404
2018-07-13T02:27:51.030Z,15.389404
2018-07-13T02:28:51.168Z,15.369263
2018-07-13T02:29:51.281Z,15.359192
2018-07-13T02:30:51.368Z,15.349121
2018-07-13T02:31:51.491Z,15.328979
2018-07-13T02:32:51.610Z,15.328979
2018-07-13T02:33:51.745Z,15.288696
2018-07-13T02:34:51.836Z,15.288696
2018-07-13T02:35:51.971Z,15.288696
2018-07-13T02:36:52.065Z,15.248413
2018-07-13T02:37:52.192Z,15.248413
2018-07-13T02:38:52.410Z,15.248413
2018-07-13T02:39:52.417Z,15.238342
2018-07-13T02:40:52.554Z,15.20813
2018-07-13T02:41:52.648Z,15.20813
2018-07-13T02:42:52.781Z,15.20813
2018-07-13T02:43:52.881Z,15.187988
2018-07-13T02:44:53.016Z,15.177917
2018-07-13T02:45:53.115Z,15.167847
2018-07-13T02:46:53.236Z,15.167847
2018-07-13T02:47:53.343Z,15.147705
2018-07-13T02:48:53.465Z,15.137634
2018-07-13T02:49:53.572Z,15.107422
2018-07-13T02:50:53.698Z,15.167847
2018-07-13T02:51:53.836Z,15.137634
2018-07-13T02:52:53.958Z,15.107422
2018-07-13T02:53:54.057Z,15.167847
2018-07-13T02:54:54.170Z,15.137634
2018-07-13T02:55:54.294Z,15.107422
2018-07-13T02:56:54.412Z,15.167847
2018-07-13T02:57:54.532Z,15.147705
2018-07-13T02:58:54.649Z,15.167847
2018-07-13T02:59:54.767Z,15.167847
2018-07-13T03:00:54.916Z,15.167847
2018-07-13T03:01:55.018Z,15.137634
2018-07-13T03:02:55.160Z,15.167847
2018-07-13T03:03:55.285Z,15.167847
2018-07-13T03:04:55.403Z,15.167847
2018-07-13T03:05:55.531Z,15.147705
2018-07-13T03:06:55.697Z,15.177917
2018-07-13T03:07:55.781Z,15.167847
2018-07-13T03:08:55.897Z,15.147705
2018-07-13T03:09:56.033Z,15.167847
2018-07-13T03:10:56.141Z,15.167847
2018-07-13T03:11:56.274Z,15.147705
2018-07-13T03:12:56.399Z,15.167847
2018-07-13T03:13:56.512Z,15.147705
2018-07-13T03:14:56.628Z,15.177917
2018-07-13T03:15:56.754Z,15.167847
2018-07-13T03:16:57.889Z,15.177917
2018-07-13T03:17:57.004Z,15.167847
2018-07-13T03:18:57.120Z,15.137634
2018-07-13T03:19:58.261Z,15.167847
2018-07-13T03:20:57.384Z,15.167847
2018-07-13T03:21:57.498Z,15.167847
2018-07-13T03:22:57.637Z,15.147705
2018-07-13T03:23:57.753Z,15.167847
2018-07-13T03:24:57.874Z,15.137634
2018-07-13T03:25:57.997Z,15.137634
2018-07-13T03:26:58.140Z,15.147705
2018-07-13T03:27:58.235Z,15.147705
2018-07-13T03:28:58.348Z,15.147705
2018-07-13T03:29:58.458Z,15.167847
2018-07-13T03:30:58.609Z,15.147705
2018-07-13T03:31:58.717Z,15.137634
2018-07-13T03:32:58.843Z,15.137634
2018-07-13T03:33:58.972Z,15.107422
2018-07-13T03:34:59.084Z,15.097351
2018-07-13T03:36:00.214Z,15.107422
2018-07-13T03:36:59.361Z,15.097351
2018-07-13T03:37:59.478Z,15.107422
2018-07-13T03:38:59.617Z,15.107422
2018-07-13T03:39:59.719Z,15.08728
2018-07-13T03:40:59.838Z,15.08728
2018-07-13T03:41:59.955Z,15.067139
2018-07-13T03:43:00.105Z,15.107422
2018-07-13T03:44:00.378Z,15.137634
2018-07-13T03:45:00.334Z,15.08728
2018-07-13T03:46:00.462Z,15.08728
2018-07-13T03:47:00.572Z,15.097351
2018-07-13T03:48:00.738Z,15.097351
2018-07-13T03:49:00.849Z,15.137634
2018-07-13T03:50:00.980Z,15.107422
2018-07-13T03:51:01.093Z,15.097351
2018-07-13T03:52:01.232Z,15.107422
2018-07-13T03:53:01.344Z,15.107422
2018-07-13T03:54:01.538Z,15.107422
2018-07-13T03:55:01.601Z,15.107422
2018-07-13T03:56:01.742Z,15.137634
2018-07-13T03:57:01.863Z,15.097351
2018-07-13T03:58:01.989Z,15.107422
2018-07-13T03:59:02.126Z,15.107422
2018-07-13T04:00:02.244Z,15.107422
2018-07-13T04:01:02.399Z,15.137634
2018-07-13T04:02:02.499Z,15.147705
2018-07-13T04:03:02.613Z,15.147705
2018-07-13T04:04:02.737Z,15.167847
2018-07-13T04:05:02.859Z,15.167847
2018-07-13T04:06:02.991Z,15.147705
2018-07-13T04:07:03.142Z,15.147705
2018-07-13T04:08:03.241Z,15.167847
2018-07-13T04:09:03.368Z,15.167847
2018-07-13T04:10:03.481Z,15.167847
2018-07-13T04:11:03.592Z,15.187988
2018-07-13T04:12:03.724Z,15.167847
2018-07-13T04:13:03.873Z,15.167847
2018-07-13T04:14:03.998Z,15.187988
2018-07-13T04:15:04.122Z,15.187988
2018-07-13T04:16:04.243Z,15.187988
2018-07-13T04:17:04.363Z,15.20813
2018-07-13T04:18:04.510Z,15.187988
2018-07-13T04:19:04.611Z,15.238342
2018-07-13T04:20:04.728Z,15.218201
2018-07-13T04:21:04.863Z,15.238342
2018-07-13T04:22:04.997Z,15.238342
2018-07-13T04:23:05.116Z,15.238342
2018-07-13T04:24:05.246Z,15.238342
2018-07-13T04:25:05.371Z,15.238342
2018-07-13T04:26:05.481Z,15.238342
2018-07-13T04:27:05.589Z,15.248413
2018-07-13T04:28:05.732Z,15.288696
2018-07-13T04:29:05.852Z,15.288696
2018-07-13T04:30:05.988Z,15.288696
2018-07-13T04:31:06.097Z,15.288696
2018-07-13T04:32:06.211Z,15.288696
2018-07-13T04:33:06.323Z,15.288696
2018-07-13T04:34:06.466Z,15.328979
2018-07-13T04:35:06.588Z,15.349121
2018-07-13T04:36:06.708Z,15.349121
2018-07-13T04:37:06.823Z,15.359192
2018-07-13T04:38:06.966Z,15.389404
2018-07-13T04:39:07.071Z,15.389404
2018-07-13T04:40:07.206Z,15.419617
2018-07-13T04:41:07.383Z,15.429688
2018-07-13T04:42:07.473Z,15.439758
2018-07-13T04:43:07.571Z,15.490112
2018-07-13T04:44:07.684Z,15.510254
2018-07-13T04:45:07.790Z,15.520325
2018-07-13T04:46:07.894Z,15.550537
2018-07-13T04:47:08.015Z,15.570679
2018-07-13T04:48:08.145Z,15.621033
2018-07-13T04:49:08.233Z,15.651245
2018-07-13T04:50:08.455Z,15.651245
2018-07-13T04:51:09.499Z,15.681458
2018-07-13T04:52:08.605Z,15.721741
2018-07-13T04:53:08.732Z,15.792236
2018-07-13T04:54:08.860Z,15.802307
2018-07-13T04:55:08.953Z,15.83252
2018-07-13T04:56:09.063Z,15.882874
2018-07-13T04:57:09.183Z,15.923157
2018-07-13T04:58:09.311Z,15.943298
2018-07-13T04:59:09.433Z,15.983582
2018-07-13T05:00:09.549Z,16.044006
2018-07-13T05:01:09.669Z,16.054077
2018-07-13T05:02:09.806Z,16.09436
2018-07-13T05:03:09.918Z,16.124573
2018-07-13T05:04:10.031Z,16.174927
2018-07-13T05:05:10.160Z,16.205139
2018-07-13T05:06:10.262Z,16.235352
2018-07-13T05:07:10.360Z,16.305847
2018-07-13T05:08:10.489Z,16.325989
2018-07-13T05:09:10.625Z,16.34613
2018-07-13T05:10:10.754Z,16.386414
2018-07-13T05:11:11.870Z,16.426697
2018-07-13T05:12:10.986Z,16.456909
2018-07-13T05:13:11.062Z,16.46698
2018-07-13T05:14:11.171Z,16.507263
2018-07-13T05:15:11.303Z,16.527405
2018-07-13T05:16:11.408Z,16.537476
2018-07-13T05:17:11.548Z,16.567688
2018-07-13T05:18:11.654Z,16.567688
2018-07-13T05:19:11.757Z,16.607971
2018-07-13T05:20:11.882Z,16.648254
2018-07-13T05:21:12.055Z,16.658325
2018-07-13T05:22:12.103Z,16.678467
2018-07-13T05:23:12.223Z,16.71875
2018-07-13T05:24:12.305Z,16.748962
2018-07-13T05:25:12.427Z,16.789246
2018-07-13T05:26:13.527Z,16.829529
2018-07-13T05:27:12.634Z,16.8396
2018-07-13T05:28:12.741Z,16.900024
2018-07-13T05:29:12.843Z,16.910095
2018-07-13T05:30:12.902Z,16.930237
2018-07-13T05:31:13.024Z,16.97052
2018-07-13T05:32:13.113Z,16.990662
2018-07-13T05:33:13.214Z,17.051086
2018-07-13T05:34:13.306Z,17.081299
2018-07-13T05:35:14.446Z,17.09137
2018-07-13T05:36:13.526Z,17.121582
2018-07-13T05:37:13.633Z,17.151794
2018-07-13T05:38:13.723Z,17.151794
2018-07-13T05:39:13.813Z,17.192078
2018-07-13T05:40:13.898Z,17.202148
2018-07-13T05:41:14.038Z,17.232361
2018-07-13T05:42:14.119Z,17.242432
2018-07-13T05:43:14.215Z,17.242432
2018-07-13T05:44:14.339Z,17.242432
2018-07-13T05:45:14.420Z,17.262573
2018-07-13T05:46:14.536Z,17.272644
2018-07-13T05:47:14.608Z,17.272644
2018-07-13T05:48:14.698Z,17.302856
2018-07-13T05:49:14.802Z,17.292786
2018-07-13T05:50:14.875Z,17.333069
2018-07-13T05:51:14.974Z,17.34314
2018-07-13T05:52:15.078Z,17.333069
2018-07-13T05:53:15.185Z,17.393494
2018-07-13T05:54:15.276Z,17.413635
2018-07-13T05:55:15.395Z,17.463989
2018-07-13T05:56:15.459Z,17.463989
2018-07-13T05:57:15.568Z,17.484131
2018-07-13T05:58:15.655Z,17.60498
2018-07-13T05:59:15.751Z,17.59491
2018-07-13T06:00:15.837Z,17.59491
2018-07-13T06:01:15.933Z,17.625122
2018-07-13T06:02:16.036Z,17.625122
2018-07-13T06:03:16.152Z,17.625122
2018-07-13T06:04:16.218Z,17.665405
2018-07-13T06:05:16.316Z,17.675476
2018-07-13T06:06:16.396Z,17.735901
2018-07-13T06:07:16.481Z,17.705688
2018-07-13T06:08:16.622Z,17.695618
2018-07-13T06:09:16.672Z,17.715759
2018-07-13T06:10:16.769Z,17.786255
2018-07-13T06:11:17.884Z,17.735901
2018-07-13T06:12:16.961Z,17.84668
2018-07-13T06:13:17.057Z,17.84668
2018-07-13T06:14:17.156Z,17.897034
2018-07-13T06:15:17.248Z,17.866821
2018-07-13T06:16:17.321Z,17.897034
2018-07-13T06:17:17.399Z,17.967529
2018-07-13T06:18:17.475Z,18.007812
2018-07-13T06:19:17.563Z,17.997742
2018-07-13T06:20:17.702Z,18.038025
2018-07-13T06:21:18.728Z,18.148804
2018-07-13T06:22:17.820Z,18.148804
2018-07-13T06:23:17.917Z,18.199158
2018-07-13T06:24:18.030Z,18.219299
2018-07-13T06:25:18.086Z,18.289795
2018-07-13T06:26:18.183Z,18.289795
2018-07-13T06:27:18.255Z,18.340149
2018-07-13T06:28:18.347Z,18.330078
2018-07-13T06:29:18.435Z,18.400574
2018-07-13T06:30:18.577Z,18.410645
2018-07-13T06:31:18.627Z,18.450928
2018-07-13T06:32:18.712Z,18.501282
2018-07-13T06:33:18.834Z,18.581848
2018-07-13T06:34:18.849Z,18.60199
2018-07-13T06:35:18.953Z,18.632202
2018-07-13T06:36:19.033Z,18.682556
2018-07-13T06:37:19.144Z,18.73291
2018-07-13T06:38:20.222Z,18.803406
2018-07-13T06:39:19.268Z,18.813477
2018-07-13T06:40:19.347Z,18.843689
2018-07-13T06:41:20.456Z,18.883972
2018-07-13T06:42:19.495Z,18.934326
2018-07-13T06:43:19.538Z,18.994751
2018-07-13T06:44:19.611Z,19.024963
2018-07-13T06:45:19.667Z,19.075317
2018-07-13T06:46:19.746Z,19.135742
2018-07-13T06:47:19.852Z,19.135742
2018-07-13T06:48:19.932Z,19.176025
2018-07-13T06:49:19.960Z,19.206238
2018-07-13T06:50:20.110Z,19.206238
2018-07-13T06:51:20.125Z,19.206238
2018-07-13T06:52:20.202Z,19.266663
2018-07-13T06:53:20.274Z,19.266663
2018-07-13T06:54:21.357Z,19.286804
2018-07-13T06:55:20.465Z,19.397583
2018-07-13T06:56:20.491Z,19.3573
2018-07-13T06:57:21.584Z,19.397583
2018-07-13T06:58:20.629Z,19.508362
2018-07-13T06:59:20.693Z,19.538574
2018-07-13T07:00:20.794Z,19.639282
2018-07-13T07:01:20.872Z,19.639282
2018-07-13T07:02:20.932Z,19.659424
2018-07-13T07:03:21.009Z,19.699707
2018-07-13T07:04:21.060Z,19.820557
2018-07-13T07:05:21.129Z,19.86084
2018-07-13T07:06:21.198Z,19.86084
2018-07-13T07:07:21.275Z,19.961548
2018-07-13T07:08:21.354Z,20.062256
2018-07-13T07:09:21.380Z,20.092468
2018-07-13T07:10:21.441Z,20.102539
2018-07-13T07:11:21.500Z,20.183105
2018-07-13T07:12:21.573Z,20.223389
2018-07-13T07:13:21.644Z,20.24353
2018-07-13T07:14:21.673Z,20.293884
2018-07-13T07:15:21.750Z,20.314026
2018-07-13T07:16:21.806Z,20.344238
2018-07-13T07:17:21.870Z,20.394592
2018-07-13T07:18:21.929Z,20.434875
2018-07-13T07:19:22.011Z,20.414734
2018-07-13T07:20:22.035Z,20.394592
2018-07-13T07:21:22.083Z,20.344238
2018-07-13T07:22:22.134Z,20.374451
2018-07-13T07:23:22.183Z,20.374451
2018-07-13T07:24:22.270Z,20.36438
2018-07-13T07:25:22.312Z,20.414734
2018-07-13T07:26:22.374Z,20.444946
2018-07-13T07:27:22.432Z,20.404663
2018-07-13T07:28:22.487Z,20.475159
2018-07-13T07:29:22.549Z,20.515442
2018-07-13T07:30:22.624Z,20.555725
2018-07-13T07:31:22.657Z,20.646362
2018-07-13T07:32:22.711Z,20.696716
2018-07-13T07:33:22.760Z,20.777283
2018-07-13T07:34:23.864Z,20.817566
2018-07-13T07:35:22.871Z,20.898132
2018-07-13T07:36:22.934Z,20.928345
2018-07-13T07:37:22.953Z,20.99884
2018-07-13T07:38:23.079Z,21.069336
2018-07-13T07:39:23.085Z,21.11969
2018-07-13T07:40:23.079Z,21.109619
2018-07-13T07:41:23.173Z,21.109619
2018-07-13T07:42:23.456Z,21.149902
2018-07-13T07:43:23.208Z,21.170044
2018-07-13T07:44:23.245Z,21.139832
2018-07-13T07:45:23.273Z,21.149902
2018-07-13T07:46:23.318Z,21.210327
2018-07-13T07:47:23.338Z,21.24054
2018-07-13T07:48:23.676Z,21.270752
2018-07-13T07:49:23.430Z,21.321106
2018-07-13T07:50:23.463Z,21.361389
2018-07-13T07:51:23.509Z,21.37146
2018-07-13T07:52:23.575Z,21.462097
2018-07-13T07:53:23.943Z,21.512451
2018-07-13T07:54:24.118Z,21.522522
2018-07-13T07:55:23.760Z,21.603088
2018-07-13T07:56:24.926Z,21.643372
2018-07-13T07:57:23.983Z,21.693726
2018-07-13T07:58:23.920Z,21.693726
2018-07-13T07:59:23.778Z,21.703796
2018-07-13T08:00:23.830Z,21.703796
2018-07-13T08:01:23.833Z,21.723938
2018-07-13T08:02:23.901Z,21.693726
2018-07-13T08:03:24.049Z,21.723938
2018-07-13T08:04:23.942Z,21.673584
2018-07-13T08:05:23.981Z,21.764221
2018-07-13T08:06:24.115Z,21.75415
2018-07-13T08:07:24.114Z,21.62323
2018-07-13T08:08:24.083Z,21.734009
2018-07-13T08:09:24.109Z,21.673584
2018-07-13T08:10:24.132Z,21.723938
2018-07-13T08:11:24.189Z,21.734009
2018-07-13T08:12:24.224Z,21.613159
2018-07-13T08:13:24.242Z,21.703796
2018-07-13T08:14:24.303Z,21.693726
2018-07-13T08:15:24.282Z,21.613159
2018-07-13T08:16:24.316Z,21.703796
2018-07-13T08:17:24.362Z,21.673584
2018-07-13T08:18:24.393Z,21.703796
2018-07-13T08:19:24.414Z,21.703796
2018-07-13T08:20:25.460Z,21.62323
2018-07-13T08:21:24.467Z,21.663513
2018-07-13T08:22:24.487Z,21.723938
2018-07-13T08:23:24.539Z,21.693726
2018-07-13T08:24:24.570Z,21.794434
2018-07-13T08:25:24.599Z,21.824646
2018-07-13T08:26:24.631Z,21.905212
2018-07-13T08:27:24.651Z,21.985779
2018-07-13T08:28:24.674Z,22.106628
2018-07-13T08:29:24.693Z,22.277832
2018-07-13T08:30:24.727Z,22.529602
2018-07-13T08:31:24.716Z,22.851868
2018-07-13T08:32:24.726Z,23.184204
2018-07-13T08:33:24.731Z,23.607178
2018-07-13T08:34:24.730Z,24.080505
2018-07-13T08:35:24.735Z,24.584045
2018-07-13T08:36:24.737Z,25.107727
2018-07-13T08:37:24.689Z,25.65155
2018-07-13T08:38:24.660Z,26.185303
2018-07-13T08:39:24.636Z,26.739197
2018-07-13T08:40:24.606Z,27.222595
2018-07-13T08:41:24.569Z,27.826843
2018-07-13T08:42:24.543Z,28.320312
2018-07-13T08:43:24.505Z,28.79364
2018-07-13T08:44:24.453Z,29.307251
2018-07-13T08:45:24.422Z,29.790649
2018-07-13T08:46:24.372Z,30.253906
2018-07-13T08:47:24.326Z,30.747375
2018-07-13T08:48:24.377Z,31.210632
2018-07-13T08:49:24.175Z,31.623535
2018-07-13T08:50:24.208Z,32.106934
2018-07-13T08:51:24.130Z,32.479553
2018-07-13T08:52:23.968Z,32.781677
2018-07-13T08:53:23.902Z,33.023376
2018-07-13T08:54:23.855Z,33.154297
2018-07-13T08:55:23.768Z,33.395996
2018-07-13T08:56:23.674Z,33.637695
2018-07-13T08:57:23.593Z,33.94989
2018-07-13T08:58:23.501Z,34.211731
2018-07-13T08:59:23.400Z,34.483643
2018-07-13T09:00:23.310Z,34.765625
2018-07-13T09:01:23.187Z,35.07782
2018-07-13T09:02:23.094Z,35.420227
2018-07-13T09:03:22.947Z,35.71228
2018-07-13T09:04:22.845Z,36.004333
2018-07-13T09:05:22.722Z,36.276245
2018-07-13T09:06:22.652Z,36.58844
2018-07-13T09:07:22.469Z,36.890564
2018-07-13T09:08:22.324Z,37.182617
2018-07-13T09:09:22.178Z,37.454529
2018-07-13T09:10:22.049Z,37.736511
2018-07-13T09:11:22.017Z,37.988281
2018-07-13T09:12:22.897Z,38.240051
2018-07-13T09:13:21.661Z,38.491821
2018-07-13T09:14:21.664Z,38.673096
2018-07-13T09:15:21.315Z,38.834229
2018-07-13T09:16:21.176Z,39.025574
2018-07-13T09:17:21.004Z,39.257202
2018-07-13T09:18:20.982Z,39.508972
2018-07-13T09:19:20.676Z,39.720459
2018-07-13T09:20:20.519Z,39.942017
2018-07-13T09:21:20.354Z,40.123291
2018-07-13T09:22:20.173Z,40.284424
2018-07-13T09:23:20.021Z,40.455627
2018-07-13T09:24:19.872Z,40.586548
2018-07-13T09:25:19.671Z,40.697327
2018-07-13T09:26:19.519Z,40.86853
2018-07-13T09:27:19.355Z,41.029663
2018-07-13T09:28:19.180Z,41.221008
2018-07-13T09:29:19.001Z,41.37207
2018-07-13T09:30:18.859Z,41.553345
2018-07-13T09:31:18.791Z,41.774902
2018-07-13T09:32:18.444Z,41.976318
2018-07-13T09:33:18.248Z,42.167664
2018-07-13T09:34:18.109Z,42.348938
2018-07-13T09:35:17.898Z,42.510071
2018-07-13T09:36:17.697Z,42.721558
2018-07-13T09:37:17.493Z,42.892761
2018-07-13T09:38:17.362Z,43.063965
2018-07-13T09:39:17.099Z,43.204956
2018-07-13T09:40:16.912Z,43.426514
2018-07-13T09:41:17.001Z,43.638
2018-07-13T09:42:17.523Z,43.809204
2018-07-13T09:43:16.417Z,43.990479
2018-07-13T09:44:16.094Z,44.151611
2018-07-13T09:45:15.836Z,44.272461
2018-07-13T09:46:15.674Z,44.393311
2018-07-13T09:47:15.430Z,44.473877
2018-07-13T09:48:15.240Z,44.594727
2018-07-13T09:49:15.001Z,44.735718
2018-07-13T09:50:14.782Z,44.906921
2018-07-13T09:51:14.901Z,45.128479
2018-07-13T09:52:14.321Z,45.370178
2018-07-13T09:53:14.130Z,45.581665
2018-07-13T09:54:14.135Z,45.752869
2018-07-13T09:55:13.634Z,45.964355
2018-07-13T09:56:13.395Z,46.014709
2018-07-13T09:57:13.242Z,45.964355
2018-07-13T09:58:12.938Z,45.964355
2018-07-13T09:59:12.690Z,46.044922
2018-07-13T10:00:12.482Z,46.185913
2018-07-13T10:01:12.250Z,46.336975
2018-07-13T10:02:11.999Z,46.498108
2018-07-13T10:03:11.751Z,46.659241
2018-07-13T10:04:11.508Z,46.840515
2018-07-13T10:05:11.285Z,47.011719
2018-07-13T10:06:11.060Z,47.182922
2018-07-13T10:07:10.768Z,47.364197
2018-07-13T10:08:10.510Z,47.414551
2018-07-13T10:09:11.385Z,47.414551
2018-07-13T10:10:09.989Z,47.424622
2018-07-13T10:11:09.694Z,47.444763
2018-07-13T10:12:09.485Z,47.52533
2018-07-13T10:13:09.207Z,47.605896
2018-07-13T10:14:08.942Z,47.676392
2018-07-13T10:15:08.687Z,47.767029
2018-07-13T10:16:08.422Z,47.867737
2018-07-13T10:17:08.149Z,47.877808
2018-07-13T10:18:07.926Z,47.807312
2018-07-13T10:19:07.648Z,47.7771
2018-07-13T10:20:07.399Z,47.767029
2018-07-13T10:21:07.176Z,47.837524
2018-07-13T10:22:06.858Z,47.948303
2018-07-13T10:23:06.612Z,48.089294
2018-07-13T10:24:06.340Z,48.240356
2018-07-13T10:25:06.054Z,48.371277
2018-07-13T10:26:05.810Z,48.492126
2018-07-13T10:27:05.538Z,48.592834
2018-07-13T10:28:05.267Z,48.66333
2018-07-13T10:29:05.048Z,48.592834
2018-07-13T10:30:05.059Z,48.602905
2018-07-13T10:31:04.458Z,48.602905
2018-07-13T10:32:04.208Z,48.653259
2018-07-13T10:33:05.487Z,48.592834
2018-07-13T10:34:03.668Z,48.592834
2018-07-13T10:35:03.443Z,48.66333
2018-07-13T10:36:03.168Z,48.653259
2018-07-13T10:37:02.900Z,48.66333
2018-07-13T10:38:02.630Z,48.723755
2018-07-13T10:39:02.377Z,48.824463
2018-07-13T10:40:02.109Z,48.965454
2018-07-13T10:41:02.009Z,49.096375
2018-07-13T10:42:01.564Z,49.197083
2018-07-13T10:43:01.253Z,49.297791
2018-07-13T10:44:00.990Z,49.388428
2018-07-13T10:45:00.681Z,49.438782
2018-07-13T10:46:00.409Z,49.509277
2018-07-13T10:47:00.142Z,49.509277
2018-07-13T10:47:59.864Z,49.509277
2018-07-13T10:48:59.571Z,49.549561
2018-07-13T10:49:59.279Z,49.579773
2018-07-13T10:50:59.002Z,49.549561
2018-07-13T10:51:58.743Z,49.53949
2018-07-13T10:52:58.448Z,49.579773
2018-07-13T10:53:58.460Z,49.630127
2018-07-13T10:54:57.871Z,49.750977
2018-07-13T10:55:57.577Z,49.871826
2018-07-13T10:56:57.344Z,50.022888
2018-07-13T10:57:56.995Z,50.113525
2018-07-13T10:58:56.710Z,50.184021
2018-07-13T10:59:56.450Z,50.244446
2018-07-13T11:00:56.127Z,50.264587
2018-07-13T11:01:55.852Z,50.284729
2018-07-13T11:02:55.553Z,50.385437
2018-07-13T11:03:55.263Z,50.54657
2018-07-13T11:04:54.960Z,50.707703
2018-07-13T11:05:54.665Z,50.909119
2018-07-13T11:06:54.368Z,51.100464
2018-07-13T11:07:54.079Z,51.271667
2018-07-13T11:08:53.797Z,51.362305
2018-07-13T11:09:53.459Z,51.362305
2018-07-13T11:10:53.179Z,51.311951
2018-07-13T11:11:52.905Z,51.251526
2018-07-13T11:12:52.607Z,51.281738
2018-07-13T11:13:52.419Z,51.362305
2018-07-13T11:14:52.004Z,51.503296
2018-07-13T11:15:51.692Z,51.654358
2018-07-13T11:16:51.370Z,51.815491
2018-07-13T11:17:51.073Z,51.966553
2018-07-13T11:18:50.770Z,52.037048
2018-07-13T11:19:50.448Z,52.087402
2018-07-13T11:20:50.144Z,52.147827
2018-07-13T11:21:49.823Z,52.208252
2018-07-13T11:22:49.507Z,52.30896
2018-07-13T11:23:49.206Z,52.399597
2018-07-13T11:24:48.883Z,52.359314
2018-07-13T11:25:48.565Z,52.319031
2018-07-13T11:26:48.262Z,52.268677